Christmas Island Airport

Airport
ICAO code: 
YPXM
IATA Code: 
XCH
Summary
ICAO Region: 
APAC
Territory: 
Location: 
Christmas Island, External territory of Australia
Serving: 
Christmas Island
Elevation: 
916 ft
Coordinates: 
Aerial View: 
10° 27' 4.349" S, 105° 41' 18.763" E
Metar
Observation
YPXM 281530Z AUTO 00000KT 9999 // SCT013 23/22 Q1012 RF00.0/000.0
Station
Christmas Island Aerodrome
Date/Time
2021-11-28 15:30:00
Wind direction
Wind speed
00 kts
Lowest cloud amount
scattered clouds
Temperature
23°C
Dew point
22°C
Humidity
94%
QNH
1012 hPa
Weather condition
n/a

Christmas Island Airport is an airport located on Christmas Island, a territory of Australia in the Indian Ocean. The island is located 2,600 kilometres northwest of the Western Australian city of Perth, 500 km south of the Indonesian capital, Jakarta, and 975 km east-northeast of the Cocos (Keeling) Islands.

Climatology

Tropical Savanna climate (Köppen climate classification Aw) - monthly mean temperature above 18°C in every month of the year and a pronounced dry season. Heat and humidity are moderated by the Trade Winds.

Runways

Designator Length Width Surface Rops
18/36 2103 45 ASP Yes/Yes
Airport map: 
Aerial View: 

SKYbrary Partners:

Safety knowledge contributed by: